Time;durP1;ratioP1;P1;durP2;ratioP2;P2;SDS_P1;SDS_P2;PMS_P1;PMS_P2;Temp;Humidity;BMP_temperature;BMP_pressure;BME280_temperature;BME280_humidity;BME280_pressure;Samples;Min_cycle;Max_cycle;Signal;HPM_P1;HPM_P2
2021/04/28 00:00:23;;;;;;;7.80;3.25;;;9.40;51.50;;;;;;5094503;28;20016;-71
2021/04/28 00:02:49;;;;;;;8.30;2.80;;;9.40;54.10;;;;;;5095480;28;20020;-72
2021/04/28 00:05:17;;;;;;;13.93;4.32;;;9.40;55.90;;;;;;5094337;28;20024;-72
2021/04/28 00:07:43;;;;;;;9.15;4.72;;;9.40;51.90;;;;;;5095701;28;20035;-72
2021/04/28 00:10:10;;;;;;;8.13;4.57;;;9.40;50.90;;;;;;5095257;28;20040;-71
2021/04/28 00:12:36;;;;;;;7.53;4.22;;;9.30;48.60;;;;;;5095543;28;20017;-72
2021/04/28 00:15:07;;;;;;;5.97;3.95;;;9.30;52.60;;;;;;5094999;28;20060;-70
2021/04/28 00:17:33;;;;;;;3.75;2.05;;;9.30;53.80;;;;;;5094164;28;20016;-72
2021/04/28 00:19:59;;;;;;;6.05;3.63;;;9.30;56.30;;;;;;5094978;28;20024;-72
2021/04/28 00:22:24;;;;;;;9.23;3.92;;;9.20;52.30;;;;;;5095236;28;20028;-72
2021/04/28 00:24:50;;;;;;;7.57;3.83;;;9.20;53.40;;;;;;5094785;28;20039;-72
2021/04/28 00:27:15;;;;;;;12.23;4.07;;;9.20;52.10;;;;;;5095159;28;20019;-72
2021/04/28 00:29:41;;;;;;;8.25;4.20;;;9.10;52.60;;;;;;5095022;28;20016;-71
2021/04/28 00:32:07;;;;;;;4.40;2.55;;;9.10;50.20;;;;;;5094656;28;20024;-71
2021/04/28 00:34:32;;;;;;;5.97;3.90;;;9.10;54.00;;;;;;5093846;28;20368;-71
2021/04/28 00:36:58;;;;;;;8.38;4.20;;;9.00;50.50;;;;;;5094825;28;20054;-71
2021/04/28 00:39:23;;;;;;;8.18;3.75;;;9.00;49.70;;;;;;5095014;28;20020;-72
2021/04/28 00:41:49;;;;;;;9.65;3.40;;;8.90;50.70;;;;;;5093423;28;20539;-72
2021/04/28 00:44:15;;;;;;;6.57;3.28;;;8.90;50.90;;;;;;5094719;28;20491;-72
2021/04/28 00:46:42;;;;;;;9.15;3.42;;;8.90;51.80;;;;;;5095032;28;20016;-72
2021/04/28 00:49:08;;;;;;;11.13;4.53;;;8.80;52.30;;;;;;5094088;28;20015;-72
2021/04/28 00:51:34;;;;;;;7.65;4.28;;;8.80;49.80;;;;;;5093525;28;20078;-72
2021/04/28 00:53:59;;;;;;;7.45;3.47;;;8.80;49.10;;;;;;5094344;28;20372;-71
2021/04/28 00:56:25;;;;;;;6.90;4.00;;;8.70;51.60;;;;;;5094462;28;20028;-72
2021/04/28 00:58:51;;;;;;;6.78;3.58;;;8.60;50.00;;;;;;5094288;28;20080;-72
2021/04/28 01:01:17;;;;;;;4.93;2.97;;;8.60;51.70;;;;;;5093376;28;20531;-71
2021/04/28 01:03:47;;;;;;;5.72;3.33;;;8.60;52.90;;;;;;5094574;28;20028;-71
2021/04/28 01:06:13;;;;;;;8.32;2.38;;;8.60;55.20;;;;;;5094746;28;20448;-71
2021/04/28 01:08:41;;;;;;;6.72;3.80;;;8.60;55.70;;;;;;5093376;28;20028;-72
2021/04/28 01:11:07;;;;;;;5.80;2.63;;;8.60;57.10;;;;;;5093094;28;20406;-71
2021/04/28 01:13:33;;;;;;;8.60;4.15;;;8.50;55.70;;;;;;5094549;28;20023;-71
2021/04/28 01:15:59;;;;;;;6.35;3.03;;;8.50;56.50;;;;;;5094725;28;20089;-71
2021/04/28 01:18:25;;;;;;;8.15;4.45;;;8.50;54.50;;;;;;5094236;28;20402;-71
2021/04/28 01:20:51;;;;;;;8.00;4.03;;;8.50;53.60;;;;;;5094038;28;20099;-71
2021/04/28 01:23:17;;;;;;;6.88;4.07;;;8.40;52.00;;;;;;5093963;28;20028;-71
2021/04/28 01:25:43;;;;;;;6.03;4.03;;;8.40;50.50;;;;;;5092538;28;20028;-72
2021/04/28 01:28:21;;;;;;;7.18;3.50;;;8.40;50.70;;;;;;5093644;28;20417;-71
2021/04/28 01:30:57;;;;;;;9.13;5.18;;;8.30;52.30;;;;;;5094427;28;20024;-71
2021/04/28 01:33:26;;;;;;;7.18;3.90;;;8.30;52.40;;;;;;5093192;28;20043;-71
2021/04/28 01:35:55;;;;;;;7.80;4.33;;;8.20;50.90;;;;;;5092787;28;20452;-71
2021/04/28 01:38:22;;;;;;;8.68;4.80;;;8.20;50.50;;;;;;5092467;28;20441;-70
2021/04/28 01:40:49;;;;;;;8.52;4.90;;;8.10;51.40;;;;;;5090089;28;20016;-71
2021/04/28 01:43:16;;;;;;;6.95;2.92;;;8.10;52.80;;;;;;5091154;28;20024;-71
2021/04/28 01:45:42;;;;;;;6.20;3.42;;;8.10;55.90;;;;;;5093656;28;20028;-72
2021/04/28 01:48:10;;;;;;;11.57;4.65;;;8.10;58.10;;;;;;5092276;28;20016;-72
2021/04/28 01:50:37;;;;;;;8.23;3.97;;;8.10;59.80;;;;;;5093659;28;20027;-72
2021/04/28 01:53:03;;;;;;;10.32;3.88;;;8.00;56.00;;;;;;5093261;28;20024;-71
2021/04/28 01:55:29;;;;;;;5.63;2.30;;;8.10;59.10;;;;;;5093308;28;20027;-71
2021/04/28 01:57:55;;;;;;;5.53;2.75;;;8.10;60.40;;;;;;5093329;28;20020;-72
2021/04/28 02:00:22;;;;;;;5.00;2.50;;;8.10;62.20;;;;;;5092461;28;20012;-72
2021/04/28 02:02:49;;;;;;;3.83;2.03;;;8.10;60.20;;;;;;5091944;28;20053;-72
2021/04/28 02:05:17;;;;;;;6.00;3.75;;;8.10;61.60;;;;;;5093069;28;20039;-71
2021/04/28 02:07:44;;;;;;;6.00;2.83;;;8.10;61.40;;;;;;5091980;28;20028;-72
2021/04/28 02:10:11;;;;;;;6.82;2.67;;;8.10;61.30;;;;;;5092581;28;20040;-72
2021/04/28 02:12:36;;;;;;;7.55;3.00;;;8.10;60.10;;;;;;5092002;28;20488;-71
2021/04/28 02:15:06;;;;;;;5.70;3.30;;;8.00;58.50;;;;;;5092978;28;20034;-72
2021/04/28 02:17:33;;;;;;;5.63;3.53;;;8.00;57.50;;;;;;5093012;28;20345;-71
2021/04/28 02:19:59;;;;;;;6.40;2.30;;;7.90;58.70;;;;;;5092629;28;20020;-72
2021/04/28 02:22:28;;;;;;;7.25;3.83;;;7.90;61.30;;;;;;5093300;28;20028;-72
2021/04/28 02:24:54;;;;;;;13.02;4.93;;;7.90;59.80;;;;;;5092855;28;20035;-71
2021/04/28 02:27:20;;;;;;;6.70;3.20;;;7.90;62.00;;;;;;5092948;28;20021;-71
2021/04/28 02:29:45;;;;;;;9.63;4.30;;;7.90;57.50;;;;;;5093240;28;20309;-71
2021/04/28 02:32:11;;;;;;;8.65;4.60;;;7.90;56.50;;;;;;5091327;28;20042;-72
2021/04/28 02:34:37;;;;;;;8.65;4.63;;;7.80;57.80;;;;;;5092804;28;20020;-72
2021/04/28 02:37:04;;;;;;;6.75;3.55;;;7.80;62.70;;;;;;5092360;28;20035;-71
2021/04/28 02:39:42;;;;;;;7.13;4.40;;;7.80;58.80;;;;;;5091398;28;20031;-71
2021/04/28 02:42:11;;;;;;;4.47;2.20;;;7.80;57.40;;;;;;5091229;28;20012;-71
2021/04/28 02:44:38;;;;;;;6.45;3.75;;;7.80;61.70;;;;;;5092172;28;20024;-72
2021/04/28 02:47:05;;;;;;;5.95;3.00;;;7.80;59.90;;;;;;5091110;28;20023;-71
2021/04/28 02:49:33;;;;;;;6.90;4.10;;;7.70;60.50;;;;;;5091234;28;20447;-71
2021/04/28 02:51:59;;;;;;;9.13;3.20;;;7.70;59.50;;;;;;5091037;28;20024;-71
2021/04/28 02:54:25;;;;;;;10.70;4.97;;;7.70;63.30;;;;;;5092345;28;20384;-71
2021/04/28 02:56:52;;;;;;;5.88;2.70;;;7.70;59.10;;;;;;5090780;28;20016;-71
2021/04/28 02:59:19;;;;;;;9.35;5.07;;;7.70;60.70;;;;;;5090828;28;20020;-71
2021/04/28 03:01:46;;;;;;;6.63;2.75;;;7.60;59.10;;;;;;5090833;28;20448;-72
2021/04/28 03:04:14;;;;;;;5.50;3.25;;;7.60;60.90;;;;;;5091831;28;20412;-71
2021/04/28 03:06:40;;;;;;;6.15;3.00;;;7.60;61.50;;;;;;5092024;28;20334;-71
2021/04/28 03:09:06;;;;;;;4.30;1.90;;;7.50;61.60;;;;;;5090708;28;20041;-70
2021/04/28 03:11:33;;;;;;;6.05;3.08;;;7.50;64.30;;;;;;5092023;28;20044;-71
2021/04/28 03:13:59;;;;;;;7.90;4.53;;;7.50;61.20;;;;;;5090678;28;20081;-71
2021/04/28 03:16:25;;;;;;;4.97;2.45;;;7.50;59.50;;;;;;5091037;28;20114;-71
2021/04/28 03:18:52;;;;;;;7.38;3.17;;;7.50;61.30;;;;;;5090944;28;20350;-72
2021/04/28 03:21:20;;;;;;;9.45;4.57;;;7.40;60.30;;;;;;5090630;28;20062;-71
2021/04/28 03:23:47;;;;;;;5.47;3.03;;;7.40;61.30;;;;;;5092174;28;20039;-71
2021/04/28 03:26:13;;;;;;;7.38;3.55;;;7.40;61.20;;;;;;5090796;28;20047;-71
2021/04/28 03:28:39;;;;;;;5.32;2.50;;;7.40;62.50;;;;;;5090900;28;20016;-71
2021/04/28 03:31:04;;;;;;;5.50;2.90;;;7.30;63.00;;;;;;5092094;28;20373;-72
2021/04/28 03:33:30;;;;;;;6.65;2.55;;;7.30;62.50;;;;;;5091155;28;20028;-71
2021/04/28 03:35:56;;;;;;;7.30;4.07;;;7.30;62.30;;;;;;5092712;28;20020;-72
2021/04/28 03:38:22;;;;;;;9.20;5.13;;;7.30;58.90;;;;;;5092601;28;20044;-71
2021/04/28 03:40:47;;;;;;;9.02;3.63;;;7.20;56.00;;;;;;5087523;28;20052;-71
2021/04/28 03:43:13;;;;;;;9.32;5.50;;;7.20;59.90;;;;;;5070252;28;20019;-71
2021/04/28 03:45:38;;;;;;;6.30;3.60;;;7.10;58.40;;;;;;5070080;28;20476;-72
2021/04/28 03:48:04;;;;;;;7.65;4.35;;;7.10;57.50;;;;;;5086326;28;20104;-72
2021/04/28 03:50:30;;;;;;;10.55;5.28;;;7.00;56.60;;;;;;5090288;28;20062;-71
2021/04/28 03:52:56;;;;;;;11.40;5.20;;;7.00;57.50;;;;;;5090432;28;20357;-71
2021/04/28 03:55:21;;;;;;;5.38;3.15;;;7.00;56.70;;;;;;5091669;28;20429;-71
2021/04/28 03:57:47;;;;;;;6.75;3.28;;;6.90;63.40;;;;;;5091825;28;20008;-71
2021/04/28 04:00:13;;;;;;;8.45;5.10;;;6.90;62.40;;;;;;5091285;28;20027;-71
2021/04/28 04:02:39;;;;;;;10.23;5.93;;;6.90;61.10;;;;;;5091750;28;20081;-72
2021/04/28 04:05:06;;;;;;;7.88;4.35;;;6.90;57.50;;;;;;5091153;28;20093;-71
2021/04/28 04:07:31;;;;;;;9.35;4.80;;;6.90;59.00;;;;;;5090465;28;20012;-71
2021/04/28 04:09:57;;;;;;;6.95;3.53;;;6.80;57.70;;;;;;5091197;28;20157;-71
2021/04/28 04:12:22;;;;;;;9.35;4.65;;;6.80;58.60;;;;;;5089934;28;20039;-71
2021/04/28 04:14:48;;;;;;;10.27;5.03;;;6.70;56.50;;;;;;5091404;28;20484;-71
2021/04/28 04:17:14;;;;;;;8.75;5.28;;;6.80;57.60;;;;;;5091074;28;20099;-71
2021/04/28 04:19:39;;;;;;;7.43;4.20;;;6.70;56.50;;;;;;5090252;28;20016;-71
2021/04/28 04:22:05;;;;;;;9.43;5.35;;;6.70;55.50;;;;;;5090150;28;20024;-71
2021/04/28 04:24:30;;;;;;;10.63;5.45;;;6.70;55.20;;;;;;5093747;28;20028;-71
2021/04/28 04:26:56;;;;;;;8.98;4.53;;;6.70;55.20;;;;;;5095107;28;20020;-71
2021/04/28 04:29:22;;;;;;;9.77;4.90;;;6.60;58.70;;;;;;5093659;28;20073;-71
2021/04/28 04:31:47;;;;;;;13.90;5.97;;;6.60;55.70;;;;;;5095453;28;20050;-71
2021/04/28 04:34:13;;;;;;;12.38;5.60;;;6.60;55.20;;;;;;5094715;28;20058;-71
2021/04/28 04:36:39;;;;;;;7.45;4.78;;;6.60;55.00;;;;;;5095272;28;20107;-72
2021/04/28 04:39:05;;;;;;;8.73;5.90;;;6.60;55.90;;;;;;5094794;28;20021;-70
2021/04/28 04:41:31;;;;;;;8.38;4.30;;;6.60;56.00;;;;;;5093352;28;20020;-71
2021/04/28 04:43:56;;;;;;;8.55;4.88;;;6.60;55.90;;;;;;5093502;28;20020;-71
2021/04/28 04:46:22;;;;;;;9.98;5.30;;;6.60;56.20;;;;;;5093219;28;20020;-71
2021/04/28 04:48:47;;;;;;;10.98;5.38;;;6.60;56.80;;;;;;5094859;28;20059;-71
2021/04/28 04:51:13;;;;;;;6.75;4.35;;;6.70;57.10;;;;;;5094522;28;20024;-71
2021/04/28 04:53:39;;;;;;;8.88;5.00;;;6.70;57.50;;;;;;5094568;28;20023;-71
2021/04/28 04:56:04;;;;;;;8.48;4.80;;;6.80;57.50;;;;;;5094229;28;20016;-70
2021/04/28 04:58:30;;;;;;;7.80;4.65;;;6.80;59.20;;;;;;5094382;28;20012;-72
2021/04/28 05:00:56;;;;;;;6.80;3.22;;;6.80;57.40;;;;;;5093340;28;20016;-72
2021/04/28 05:03:21;;;;;;;5.82;2.90;;;6.90;58.30;;;;;;5094415;28;20456;-71
2021/04/28 05:05:47;;;;;;;7.72;3.08;;;7.00;58.90;;;;;;5093113;28;20099;-71
2021/04/28 05:08:13;;;;;;;5.97;2.75;;;7.00;61.10;;;;;;5094094;28;20452;-71
2021/04/28 05:10:38;;;;;;;5.05;2.47;;;7.10;61.20;;;;;;5094134;28;20043;-71
2021/04/28 05:13:04;;;;;;;5.30;2.25;;;7.20;61.70;;;;;;5094068;28;20028;-72
2021/04/28 05:15:29;;;;;;;5.63;2.90;;;7.40;61.20;;;;;;5094396;28;20606;-71
2021/04/28 05:17:59;;;;;;;6.22;2.95;;;7.50;62.00;;;;;;5092639;28;20020;-71
2021/04/28 05:20:25;;;;;;;10.05;4.05;;;7.60;61.40;;;;;;5093984;28;20024;-71
2021/04/28 05:22:51;;;;;;;8.40;4.43;;;7.60;56.60;;;;;;5094239;28;20016;-72
2021/04/28 05:25:16;;;;;;;8.30;4.47;;;7.80;57.40;;;;;;5093824;28;20074;-71
2021/04/28 05:27:42;;;;;;;9.85;5.05;;;7.90;58.50;;;;;;5093001;28;20016;-71
2021/04/28 05:30:09;;;;;;;6.57;4.20;;;8.00;55.80;;;;;;5093352;28;20027;-72
2021/04/28 05:32:36;;;;;;;11.93;5.45;;;8.00;55.00;;;;;;5093984;28;20016;-71
2021/04/28 05:35:02;;;;;;;13.40;5.72;;;8.00;53.10;;;;;;5093255;28;20039;-72
2021/04/28 05:37:28;;;;;;;8.80;4.88;;;8.10;53.00;;;;;;5093562;28;20019;-71
2021/04/28 05:39:54;;;;;;;11.45;5.50;;;8.20;53.20;;;;;;5093660;28;20040;-72
2021/04/28 05:42:19;;;;;;;9.05;4.93;;;8.30;52.60;;;;;;5093586;28;20360;-71
2021/04/28 05:44:46;;;;;;;11.02;5.20;;;8.50;51.60;;;;;;5092478;28;20024;-71
2021/04/28 05:47:13;;;;;;;8.88;4.80;;;8.60;50.90;;;;;;5093367;28;20448;-72
2021/04/28 05:49:39;;;;;;;10.32;5.25;;;8.70;50.70;;;;;;5092385;28;20111;-72
2021/04/28 05:52:04;;;;;;;9.57;4.45;;;8.80;50.50;;;;;;5092360;28;20066;-72
2021/04/28 05:54:30;;;;;;;8.57;4.90;;;8.90;51.10;;;;;;5093571;28;20441;-72
2021/04/28 05:56:59;;;;;;;9.18;4.07;;;9.00;51.10;;;;;;5092267;28;20016;-73
2021/04/28 05:59:25;;;;;;;10.25;5.03;;;9.10;55.90;;;;;;5091997;28;20016;-73
2021/04/28 06:01:51;;;;;;;8.65;4.85;;;9.10;51.50;;;;;;5093465;28;20047;-71
2021/04/28 06:04:17;;;;;;;12.85;5.82;;;9.10;49.90;;;;;;5091885;28;20467;-72
2021/04/28 06:06:43;;;;;;;8.50;5.30;;;9.10;49.90;;;;;;5092150;28;20334;-72
2021/04/28 06:09:09;;;;;;;8.70;5.93;;;9.20;49.80;;;;;;5093080;28;20016;-72
2021/04/28 06:11:35;;;;;;;10.48;5.57;;;9.20;49.90;;;;;;5093321;28;20063;-71
2021/04/28 06:14:01;;;;;;;11.90;5.15;;;9.30;50.40;;;;;;5093307;28;20020;-71
2021/04/28 06:16:26;;;;;;;8.68;4.57;;;9.40;49.60;;;;;;5091649;28;20413;-72
2021/04/28 06:18:53;;;;;;;13.13;5.55;;;9.60;53.40;;;;;;5091949;28;20016;-72
2021/04/28 06:21:19;;;;;;;11.77;6.13;;;9.70;49.10;;;;;;5091507;28;20027;-72
2021/04/28 06:23:48;;;;;;;8.30;5.53;;;9.80;48.40;;;;;;5091520;28;20020;-72
2021/04/28 06:26:13;;;;;;;8.82;5.03;;;10.10;48.00;;;;;;5091151;28;20399;-72
2021/04/28 06:28:39;;;;;;;9.65;6.00;;;10.20;47.80;;;;;;5092705;28;20012;-72
2021/04/28 06:31:05;;;;;;;7.88;4.65;;;10.30;47.60;;;;;;5092536;28;20019;-72
2021/04/28 06:33:30;;;;;;;9.73;5.03;;;10.50;48.50;;;;;;5091511;28;20018;-72
2021/04/28 06:35:56;;;;;;;8.88;5.45;;;10.60;47.10;;;;;;5091635;28;20012;-72
2021/04/28 06:38:23;;;;;;;10.13;4.97;;;10.70;48.20;;;;;;5092611;28;20104;-72
2021/04/28 06:40:48;;;;;;;25.42;6.65;;;10.80;47.30;;;;;;5092882;28;20480;-72
2021/04/28 06:43:14;;;;;;;9.10;5.10;;;10.90;47.10;;;;;;5092316;28;20073;-72
2021/04/28 06:45:47;;;;;;;13.38;5.53;;;11.00;45.80;;;;;;5092550;28;20123;-74
2021/04/28 06:48:16;;;;;;;11.18;5.68;;;11.10;46.60;;;;;;5092242;28;20026;-71
2021/04/28 06:50:44;;;;;;;16.67;5.28;;;11.10;45.30;;;;;;5091735;28;20448;-75
2021/04/28 06:53:14;;;;;;;14.65;4.90;;;11.20;45.30;;;;;;5091545;28;20569;-72
2021/04/28 06:55:44;;;;;;;11.45;5.80;;;11.30;44.80;;;;;;5091803;28;20081;-72
2021/04/28 06:58:23;;;;;;;10.32;5.22;;;11.40;44.20;;;;;;5090816;28;20027;-71
2021/04/28 07:00:50;;;;;;;18.05;5.30;;;11.40;46.50;;;;;;5090860;28;20027;-72
2021/04/28 07:03:16;;;;;;;9.48;5.00;;;11.60;46.20;;;;;;5092126;28;20024;-72
2021/04/28 07:05:42;;;;;;;10.85;5.88;;;11.80;45.40;;;;;;5090844;28;20418;-72
2021/04/28 07:08:07;;;;;;;11.15;5.55;;;12.00;43.90;;;;;;5092118;28;20024;-72
2021/04/28 07:10:33;;;;;;;8.38;5.10;;;12.10;43.40;;;;;;5091884;28;20402;-72
2021/04/28 07:12:59;;;;;;;10.27;5.82;;;12.30;44.50;;;;;;5092359;28;20023;-72
2021/04/28 07:15:24;;;;;;;10.35;4.78;;;12.50;42.80;;;;;;5091992;28;20066;-72
2021/04/28 07:17:52;;;;;;;8.63;4.80;;;12.50;43.70;;;;;;5090889;28;20020;-72
2021/04/28 07:20:18;;;;;;;8.95;5.45;;;12.60;47.20;;;;;;5092252;28;20020;-72
2021/04/28 07:22:44;;;;;;;10.70;5.60;;;12.70;43.70;;;;;;5092428;28;20078;-73
2021/04/28 07:25:11;;;;;;;9.73;5.57;;;12.90;43.90;;;;;;5091862;28;20020;-72
2021/04/28 07:27:37;;;;;;;11.02;5.78;;;13.00;42.80;;;;;;5091051;28;20020;-72
2021/04/28 07:30:04;;;;;;;13.73;6.50;;;13.10;41.50;;;;;;5091024;28;20012;-72
2021/04/28 07:32:30;;;;;;;9.65;5.90;;;13.20;41.40;;;;;;5091967;28;20016;-71
2021/04/28 07:34:56;;;;;;;9.80;5.95;;;13.20;40.30;;;;;;5090854;28;20031;-71
2021/04/28 07:37:21;;;;;;;9.40;6.30;;;13.10;40.00;;;;;;5090624;28;20027;-72
2021/04/28 07:39:47;;;;;;;10.95;6.60;;;13.10;41.10;;;;;;5091842;28;20475;-71
2021/04/28 07:42:12;;;;;;;11.40;5.05;;;13.20;40.60;;;;;;5091844;28;20016;-72
2021/04/28 07:44:38;;;;;;;12.65;5.30;;;13.20;43.30;;;;;;5092018;28;20024;-71
2021/04/28 07:47:04;;;;;;;6.82;4.38;;;13.30;46.40;;;;;;5083835;28;20023;-72
2021/04/28 07:49:30;;;;;;;7.90;6.03;;;13.40;48.20;;;;;;5070040;28;20023;-72
2021/04/28 07:51:56;;;;;;;11.73;6.72;;;13.40;43.50;;;;;;5070439;28;20365;-72
2021/04/28 07:54:25;;;;;;;11.50;6.18;;;13.50;41.10;;;;;;5070276;28;20020;-72
2021/04/28 07:56:51;;;;;;;10.55;6.70;;;13.70;40.60;;;;;;5070401;28;20129;-72
2021/04/28 07:59:16;;;;;;;14.55;7.70;;;13.70;40.50;;;;;;5072060;28;20456;-72
2021/04/28 08:01:42;;;;;;;11.82;5.88;;;13.90;40.20;;;;;;5074252;28;20529;-72
2021/04/28 08:04:08;;;;;;;8.85;6.47;;;14.00;41.10;;;;;;5073678;28;20065;-72
2021/04/28 08:06:34;;;;;;;9.10;6.35;;;14.30;39.70;;;;;;5074928;28;20075;-71
2021/04/28 08:09:00;;;;;;;13.23;6.38;;;14.40;39.80;;;;;;5075184;28;20076;-72
2021/04/28 08:11:26;;;;;;;10.15;6.80;;;14.60;39.80;;;;;;5074896;28;20080;-72
2021/04/28 08:13:53;;;;;;;11.60;5.93;;;14.60;38.70;;;;;;5074560;28;20024;-72
2021/04/28 08:16:21;;;;;;;14.73;6.95;;;14.50;39.60;;;;;;5076054;28;20091;-72
2021/04/28 08:18:48;;;;;;;10.43;6.00;;;14.80;39.60;;;;;;5073660;28;20111;-72
2021/04/28 08:21:14;;;;;;;9.38;5.82;;;15.00;40.40;;;;;;5075146;28;20017;-73
2021/04/28 08:23:42;;;;;;;9.90;5.97;;;15.20;40.90;;;;;;5074117;28;20334;-73
2021/04/28 08:26:12;;;;;;;8.10;5.32;;;15.50;39.00;;;;;;5075172;28;20110;-73
2021/04/28 08:28:41;;;;;;;7.15;3.40;;;15.70;41.90;;;;;;5074868;28;20031;-72
2021/04/28 08:31:08;;;;;;;8.05;4.90;;;15.90;45.60;;;;;;5074838;28;20372;-72
2021/04/28 08:33:34;;;;;;;10.02;4.13;;;16.20;42.30;;;;;;5073449;28;20056;-72
2021/04/28 08:35:59;;;;;;;8.10;3.33;;;16.60;44.80;;;;;;5073645;28;20021;-72
2021/04/28 08:38:25;;;;;;;9.98;5.45;;;16.80;45.50;;;;;;5074932;28;20060;-71
2021/04/28 08:40:51;;;;;;;11.93;6.82;;;16.90;43.10;;;;;;5073593;28;20012;-72
2021/04/28 08:43:20;;;;;;;13.07;6.07;;;17.10;41.90;;;;;;5074336;28;20071;-73
2021/04/28 08:45:46;;;;;;;8.50;6.20;;;17.30;38.10;;;;;;5074365;28;20026;-73
2021/04/28 08:48:11;;;;;;;10.85;7.07;;;17.40;38.40;;;;;;5074810;28;20266;-73
2021/04/28 08:50:37;;;;;;;9.15;6.25;;;17.50;36.00;;;;;;5073059;28;20021;-74
2021/04/28 08:53:03;;;;;;;15.23;7.30;;;17.50;37.80;;;;;;5074704;28;20056;-72
2021/04/28 08:55:28;;;;;;;11.98;5.35;;;17.70;35.70;;;;;;5074610;28;20028;-73
2021/04/28 08:57:54;;;;;;;13.45;6.88;;;17.80;40.90;;;;;;5073157;28;20020;-73
2021/04/28 09:00:20;;;;;;;14.50;7.03;;;17.90;41.70;;;;;;5074011;28;20111;-73
2021/04/28 09:02:54;;;;;;;11.55;7.22;;;18.10;37.60;;;;;;5074078;28;20027;-72
2021/04/28 09:05:21;;;;;;;11.05;4.03;;;18.30;36.00;;;;;;5072790;28;20062;-73
2021/04/28 09:07:47;;;;;;;8.50;3.38;;;18.30;44.00;;;;;;5072837;28;20078;-73
2021/04/28 09:10:24;;;;;;;9.18;6.20;;;18.40;43.90;;;;;;5073892;28;20036;-72
2021/04/28 09:13:15;;;;;;;12.70;7.20;;;18.70;40.40;;;;;;5073062;28;20487;-73
2021/04/28 09:15:49;;;;;;;12.30;7.63;;;18.80;34.40;;;;;;5073137;28;20410;-71
2021/04/28 09:18:32;;;;;;;12.27;6.32;;;18.70;34.20;;;;;;5074103;28;20020;-71
2021/04/28 09:20:59;;;;;;;9.23;6.10;;;18.70;35.40;;;;;;5071623;28;20016;-73
2021/04/28 09:23:35;;;;;;;7.75;4.70;;;18.50;36.20;;;;;;5094029;28;20051;-72
2021/04/28 09:26:03;;;;;;;10.95;5.07;;;18.60;39.70;;;;;;5092798;28;20035;-72
2021/04/28 09:28:34;;;;;;;10.93;5.68;;;18.90;39.60;;;;;;5091254;28;20044;-71
2021/04/28 09:31:06;;;;;;;15.55;7.75;;;19.20;37.20;;;;;;5074151;28;20326;-71
2021/04/28 09:33:40;;;;;;;10.60;7.45;;;19.20;34.30;;;;;;5073601;28;20422;-72
2021/04/28 09:36:11;;;;;;;11.07;6.47;;;19.10;35.90;;;;;;5072345;28;20024;-71
2021/04/28 09:39:01;;;;;;;20.35;9.02;;;19.20;35.60;;;;;;5072217;28;20019;-71
2021/04/28 09:41:32;;;;;;;10.93;7.10;;;19.70;33.90;;;;;;5073624;28;20021;-72
2021/04/28 09:43:58;;;;;;;12.50;6.95;;;19.60;32.50;;;;;;5072006;28;20704;-72
2021/04/28 09:46:24;;;;;;;11.18;6.32;;;19.20;35.30;;;;;;5072970;28;20278;-72
2021/04/28 09:49:01;;;;;;;10.05;7.22;;;19.00;34.90;;;;;;5071967;28;20102;-71
2021/04/28 09:51:35;;;;;;;14.98;7.53;;;19.00;33.50;;;;;;5073269;28;20035;-71
2021/04/28 09:54:13;;;;;;;19.85;8.32;;;18.80;34.20;;;;;;5071952;28;20357;-72
2021/04/28 09:56:40;;;;;;;13.20;7.60;;;18.70;36.40;;;;;;5071757;28;20103;-72
2021/04/28 09:59:06;;;;;;;10.55;5.53;;;18.90;37.80;;;;;;5073185;28;20027;-72
2021/04/28 10:01:36;;;;;;;16.45;7.07;;;19.00;38.30;;;;;;5071384;28;20017;-72
2021/04/28 10:04:04;;;;;;;13.55;6.47;;;18.90;38.00;;;;;;5073047;28;20064;-73
2021/04/28 10:06:47;;;;;;;7.78;5.22;;;19.20;38.60;;;;;;5072862;28;20552;-72
2021/04/28 10:09:38;;;;;;;45.60;10.63;;;19.70;42.30;;;;;;5073049;28;20134;-72
2021/04/28 10:12:11;;;;;;;13.05;8.02;;;19.90;35.80;;;;;;5071233;28;20043;-72
2021/04/28 10:14:37;;;;;;;12.35;4.63;;;20.10;36.40;;;;;;5072320;28;20044;-73
2021/04/28 10:17:05;;;;;;;10.15;6.30;;;20.20;41.50;;;;;;5070614;28;20020;-73
2021/04/28 10:19:33;;;;;;;8.65;4.05;;;20.30;40.00;;;;;;5070344;28;20453;-73
2021/04/28 10:22:06;;;;;;;11.40;7.20;;;20.30;44.00;;;;;;5069339;28;20441;-72
2021/04/28 10:24:42;;;;;;;11.05;5.70;;;20.20;33.30;;;;;;5070702;28;20028;-71
2021/04/28 10:27:39;;;;;;;11.27;7.97;;;20.30;38.50;;;;;;5083070;27;785651;-72
2021/04/28 10:30:14;;;;;;;11.10;6.90;;;20.50;34.50;;;;;;5091274;28;20039;-71
2021/04/28 10:32:43;;;;;;;17.55;8.35;;;20.70;36.00;;;;;;5075883;28;20012;-74
2021/04/28 10:35:43;;;;;;;13.75;8.35;;;20.90;32.70;;;;;;5091498;28;20016;-76
2021/04/28 10:38:00;;;;;;;11.18;6.63;;;21.30;33.60;;;;;;5105461;28;20024;-73
2021/04/28 10:40:37;;;;;;;9.00;5.13;;;21.40;35.00;;;;;;5090490;28;20626;-72
2021/04/28 10:43:20;;;;;;;7.80;4.78;;;21.50;40.10;;;;;;5089866;28;20028;-73
2021/04/28 10:45:46;;;;;;;11.82;5.32;;;21.50;39.70;;;;;;5090387;28;20089;-72
2021/04/28 10:48:14;;;;;;;9.52;5.97;;;21.70;39.10;;;;;;5091456;28;20020;-73
2021/04/28 10:50:43;;;;;;;12.70;7.82;;;21.80;37.00;;;;;;5091069;28;20012;-74
2021/04/28 10:53:20;;;;;;;17.23;8.00;;;22.00;36.90;;;;;;5091345;28;20011;-73
2021/04/28 10:55:46;;;;;;;12.77;7.20;;;21.80;33.00;;;;;;5090773;28;20460;-73
2021/04/28 10:58:32;;;;;;;7.82;4.55;;;21.50;35.90;;;;;;5090899;28;20064;-72
2021/04/28 11:01:06;;;;;;;11.55;6.65;;;21.40;41.00;;;;;;5091095;28;20077;-72
2021/04/28 11:03:36;;;;;;;11.55;6.88;;;21.50;37.00;;;;;;5109010;28;20016;-73
2021/04/28 11:06:17;;;;;;;10.23;5.40;;;21.70;39.50;;;;;;5109104;28;20020;-72
2021/04/28 11:08:56;;;;;;;7.93;5.13;;;21.80;40.20;;;;;;5090600;28;20027;-72
2021/04/28 11:11:34;;;;;;;10.75;7.32;;;22.10;40.10;;;;;;5090790;28;20020;-73
2021/04/28 11:14:15;;;;;;;7.47;5.35;;;22.30;35.20;;;;;;5108879;28;20376;-74
2021/04/28 11:16:50;;;;;;;13.48;5.75;;;22.70;36.00;;;;;;5109281;28;20024;-73
2021/04/28 11:19:29;;;;;;;6.32;3.88;;;23.00;40.10;;;;;;5090851;28;20453;-73
2021/04/28 11:22:12;;;;;;;14.37;7.43;;;23.10;42.70;;;;;;5091562;28;20455;-72
2021/04/28 11:24:52;;;;;;;13.13;6.82;;;23.20;35.00;;;;;;5090837;28;20440;-74
2021/04/28 11:27:47;;;;;;;11.35;7.03;;;23.20;38.80;;;;;;5109887;28;20084;-73
2021/04/28 11:30:18;;;;;;;14.40;9.18;;;23.10;34.90;;;;;;5109118;28;20073;-74
2021/04/28 11:33:23;;;;;;;7.90;2.85;;;22.80;34.60;;;;;;5090307;28;20020;-74
2021/04/28 11:35:52;;;;;;;8.88;4.97;;;22.60;45.90;;;;;;5090012;28;20019;-74
2021/04/28 11:38:19;;;;;;;9.20;4.03;;;22.50;41.70;;;;;;5098550;28;20093;-73
2021/04/28 11:40:47;;;;;;;11.00;6.60;;;22.70;45.10;;;;;;5094663;28;20020;-73
2021/04/28 11:43:13;;;;;;;10.75;7.60;;;22.70;36.00;;;;;;5076542;28;20043;-73
2021/04/28 11:45:39;;;;;;;10.48;4.72;;;22.60;40.30;;;;;;5094459;28;20066;-73
2021/04/28 11:48:15;;;;;;;7.97;4.25;;;22.60;42.90;;;;;;5094722;28;20445;-73
2021/04/28 11:50:50;;;;;;;10.90;6.95;;;22.60;44.20;;;;;;5094964;28;20051;-74
2021/04/28 11:53:16;;;;;;;10.18;7.13;;;22.70;39.70;;;;;;5076753;28;20076;-74
2021/04/28 11:55:42;;;;;;;15.25;9.95;;;22.80;39.60;;;;;;5076558;28;20032;-73
2021/04/28 11:58:26;;;;;;;14.25;10.45;;;22.80;33.50;;;;;;5076629;28;20463;-73
2021/04/28 12:01:11;;;;;;;13.02;8.75;;;22.70;30.00;;;;;;5094632;28;20103;-73
2021/04/28 12:04:00;;;;;;;16.60;10.95;;;22.80;32.40;;;;;;5094710;28;20125;-72
2021/04/28 12:06:30;;;;;;;15.25;9.55;;;22.60;30.50;;;;;;5094462;28;20064;-72
2021/04/28 12:09:03;;;;;;;10.05;5.45;;;22.60;34.80;;;;;;5094360;28;20027;-71
2021/04/28 12:11:28;;;;;;;14.85;9.23;;;22.60;41.60;;;;;;5094050;28;20020;-73
2021/04/28 12:13:55;;;;;;;18.00;9.93;;;22.60;32.80;;;;;;5076076;28;20364;-73
2021/04/28 12:16:20;;;;;;;14.75;8.40;;;22.70;35.50;;;;;;5076161;28;20475;-72
2021/04/28 12:18:47;;;;;;;10.23;5.47;;;22.50;35.10;;;;;;5076005;28;20107;-72
2021/04/28 12:21:12;;;;;;;9.60;5.30;;;22.50;41.50;;;;;;5094330;28;20043;-72
2021/04/28 12:23:39;;;;;;;8.45;3.58;;;22.60;42.20;;;;;;5075902;28;20059;-71
2021/04/28 12:26:08;;;;;;;6.28;3.33;;;22.70;44.70;;;;;;5093983;28;20129;-71
2021/04/28 12:28:51;;;;;;;11.32;7.63;;;22.90;45.80;;;;;;5075800;28;20020;-72
2021/04/28 12:31:16;;;;;;;7.88;4.28;;;23.40;39.00;;;;;;5093997;28;20059;-70
2021/04/28 12:33:42;;;;;;;10.48;4.35;;;23.70;43.90;;;;;;5075642;28;20465;-70
2021/04/28 12:36:08;;;;;;;15.48;11.45;;;23.70;45.00;;;;;;5075911;28;20147;-71
2021/04/28 12:38:38;;;;;;;13.40;10.10;;;23.70;31.60;;;;;;5075711;28;20099;-71
2021/04/28 12:41:07;;;;;;;7.10;3.63;;;23.50;37.20;;;;;;5094187;28;20015;-71
2021/04/28 12:43:36;;;;;;;11.95;6.78;;;23.60;44.90;;;;;;5093766;28;20013;-70
2021/04/28 12:46:02;;;;;;;12.17;7.93;;;23.60;39.40;;;;;;5075546;28;20464;-71
2021/04/28 12:48:27;;;;;;;12.52;6.63;;;23.80;40.60;;;;;;5093508;28;20028;-71
2021/04/28 12:50:53;;;;;;;11.35;6.53;;;24.00;40.80;;;;;;5074651;28;20031;-73
2021/04/28 12:53:21;;;;;;;11.13;4.22;;;24.10;40.90;;;;;;5075613;28;20031;-71